East Johnson, Vermont
Current Conditions -  °F | °C
As of 2:54 PM on Monday 26 Jan 2015 (Local Time) from KMVL Reporting Station
Clear Clear  
Wind Chill:   Ceiling: Unl
Heat Index: 14°   Visibility: 10mi
Dew Point: -1°   Wind: 5mph
Humidity: 52%   Direction: 50°NE
Pressure: 30.08"   Gusts: NA
Location:  44.6472°N, 72.6854°W
Report Text: KMVL 261954Z AUTO 05004KT 10SM CLR M10/M18 A3008 RMK AO2 SNB01E10 SLP206 P0000 T11001183 TSNO
Loading
Personal Weather Stations






























Interactive Weather Map New forecast layout! Learn more

10-Day Weather Forecast

Advertisements
Track Severe Weather on mobile